createdAt,value
2023-03-17T00:01:57.687Z,8.39
2023-03-17T00:04:27.567Z,8.35
2023-03-17T00:06:56.676Z,8.39
2023-03-17T00:09:24.925Z,8.42
2023-03-17T00:11:54.602Z,8.42
2023-03-17T00:14:22.880Z,8.38
2023-03-17T00:16:53.264Z,8.39
2023-03-17T00:19:27.400Z,8.33
2023-03-17T00:21:56.235Z,8.32
2023-03-17T00:24:24.865Z,8.33
2023-03-17T00:26:54.219Z,8.33
2023-03-17T00:29:22.214Z,8.33
2023-03-17T00:31:51.620Z,8.31
2023-03-17T00:34:24.313Z,8.29
2023-03-17T00:36:53.429Z,8.35
2023-03-17T00:39:24.252Z,8.36
2023-03-17T00:41:56.524Z,8.39
2023-03-17T00:44:25.550Z,8.51
2023-03-17T00:46:56.546Z,8.53
2023-03-17T00:49:26.304Z,8.63
2023-03-17T00:51:55.048Z,8.72
2023-03-17T00:54:23.226Z,8.79
2023-03-17T00:56:53.646Z,8.89
2023-03-17T00:59:28.141Z,8.90
2023-03-17T01:01:56.697Z,8.97
2023-03-17T01:04:25.575Z,9.01
2023-03-17T01:06:54.140Z,9.05
2023-03-17T01:09:26.891Z,9.07
2023-03-17T01:11:55.618Z,9.06
2023-03-17T01:14:25.774Z,9.18
2023-03-17T01:16:55.173Z,9.15
2023-03-17T01:19:24.031Z,9.12
2023-03-17T01:21:52.288Z,9.05
2023-03-17T01:24:21.014Z,8.99
2023-03-17T01:26:49.297Z,8.97
2023-03-17T01:29:17.559Z,9.01
2023-03-17T01:31:47.654Z,9.02
2023-03-17T01:34:16.526Z,9.06
2023-03-17T01:36:44.653Z,9.15
2023-03-17T01:39:12.859Z,9.11
2023-03-17T01:41:41.365Z,9.08
2023-03-17T01:44:15.690Z,9.20
2023-03-17T01:46:45.511Z,9.19
2023-03-17T01:49:20.344Z,9.26
2023-03-17T01:51:55.490Z,9.13
2023-03-17T01:54:28.209Z,9.31
2023-03-17T01:56:59.718Z,9.34
2023-03-17T01:59:34.693Z,9.29
2023-03-17T02:02:06.862Z,9.27
2023-03-17T02:04:36.935Z,9.35
2023-03-17T02:07:06.058Z,9.25
2023-03-17T02:09:35.494Z,9.42
2023-03-17T02:12:05.281Z,9.35
2023-03-17T02:14:34.145Z,9.42
2023-03-17T02:17:03.908Z,9.42
2023-03-17T02:19:35.277Z,9.50
2023-03-17T02:22:05.038Z,9.46
2023-03-17T02:24:37.162Z,9.46
2023-03-17T02:27:09.752Z,9.47
2023-03-17T02:29:37.948Z,9.48
2023-03-17T02:32:06.917Z,9.50
2023-03-17T02:34:35.416Z,9.47
2023-03-17T02:37:07.802Z,9.47
2023-03-17T02:39:36.334Z,9.46
2023-03-17T02:42:05.500Z,9.52
2023-03-17T02:44:35.159Z,9.54
2023-03-17T02:47:04.298Z,9.48
2023-03-17T02:49:33.734Z,9.41
2023-03-17T02:52:01.662Z,9.43
2023-03-17T02:54:31.234Z,9.45
2023-03-17T02:56:59.175Z,9.41
2023-03-17T02:59:27.608Z,9.45
2023-03-17T03:01:58.022Z,9.51
2023-03-17T03:04:26.330Z,9.60
2023-03-17T03:06:54.716Z,9.63
2023-03-17T03:09:24.262Z,9.62
2023-03-17T03:11:53.518Z,9.64
2023-03-17T03:14:21.428Z,9.72
2023-03-17T03:16:49.872Z,9.77
2023-03-17T03:19:18.574Z,9.77
2023-03-17T03:21:46.636Z,9.72
2023-03-17T03:24:14.878Z,9.69
2023-03-17T03:26:42.960Z,9.65
2023-03-17T03:29:12.182Z,9.63
2023-03-17T03:31:40.615Z,9.63
2023-03-17T03:34:08.573Z,9.63
2023-03-17T03:36:37.005Z,9.63
2023-03-17T03:39:05.174Z,9.65
2023-03-17T03:41:33.528Z,9.64
2023-03-17T03:44:01.626Z,9.65
2023-03-17T03:46:31.355Z,9.63
2023-03-17T03:48:59.345Z,9.56
2023-03-17T03:51:27.288Z,9.53
2023-03-17T03:53:55.463Z,9.51
2023-03-17T03:56:23.363Z,9.48
2023-03-17T03:58:51.272Z,9.45
2023-03-17T04:01:19.676Z,9.42
2023-03-17T04:03:49.140Z,9.38
2023-03-17T04:06:17.307Z,9.35
2023-03-17T04:08:45.194Z,9.37
2023-03-17T04:11:13.351Z,9.37
2023-03-17T04:13:41.480Z,9.38
2023-03-17T04:16:09.816Z,9.40
2023-03-17T04:18:38.094Z,9.38
2023-03-17T04:21:08.320Z,9.35
2023-03-17T04:23:39.581Z,9.26
2023-03-17T04:26:08.574Z,9.26
2023-03-17T04:28:36.514Z,9.24
2023-03-17T04:31:04.528Z,9.23
2023-03-17T04:33:32.880Z,9.21
2023-03-17T04:36:00.781Z,9.24
2023-03-17T04:38:30.157Z,9.25
2023-03-17T04:40:59.128Z,9.27
2023-03-17T04:43:27.152Z,9.28
2023-03-17T04:45:55.107Z,9.31
2023-03-17T04:48:23.366Z,9.34
2023-03-17T04:50:51.448Z,9.36
2023-03-17T04:53:19.510Z,9.38
2023-03-17T04:55:49.548Z,9.36
2023-03-17T04:58:30.060Z,9.39
2023-03-17T05:00:59.422Z,9.36
2023-03-17T05:03:28.585Z,9.32
2023-03-17T05:05:57.448Z,9.27
2023-03-17T05:08:28.285Z,9.29
2023-03-17T05:10:59.340Z,9.28
2023-03-17T05:13:27.894Z,9.30
2023-03-17T05:15:56.998Z,9.32
2023-03-17T05:18:26.641Z,9.32
2023-03-17T05:20:55.669Z,9.32
2023-03-17T05:23:24.149Z,9.31
2023-03-17T05:25:52.704Z,9.26
2023-03-17T05:28:22.669Z,9.28
2023-03-17T05:30:50.760Z,9.26
2023-03-17T05:33:19.985Z,9.26
2023-03-17T05:35:48.259Z,9.16
2023-03-17T05:38:16.979Z,9.18
2023-03-17T05:40:45.701Z,9.21
2023-03-17T05:43:14.895Z,9.24
2023-03-17T05:45:45.096Z,9.23
2023-03-17T05:48:13.282Z,9.24
2023-03-17T05:50:41.913Z,9.22
2023-03-17T05:53:10.660Z,9.15
2023-03-17T05:55:38.998Z,9.08
2023-03-17T05:58:07.770Z,9.14
2023-03-17T06:00:36.462Z,9.16
2023-03-17T06:03:07.683Z,9.23
2023-03-17T06:05:35.943Z,9.19
2023-03-17T06:08:05.752Z,9.24
2023-03-17T06:10:34.650Z,9.29
2023-03-17T06:13:03.991Z,9.31
2023-03-17T06:15:34.224Z,9.39
2023-03-17T06:18:02.909Z,9.51
2023-03-17T06:20:32.274Z,9.59
2023-03-17T06:23:05.070Z,9.62
2023-03-17T06:25:34.672Z,9.68
2023-03-17T06:28:03.874Z,9.79
2023-03-17T06:30:32.877Z,9.89
2023-03-17T06:33:01.355Z,9.97
2023-03-17T06:35:30.336Z,9.99
2023-03-17T06:38:00.831Z,10.17
2023-03-17T06:40:29.277Z,10.29
2023-03-17T06:42:57.653Z,10.33
2023-03-17T06:45:26.033Z,10.48
2023-03-17T06:47:54.399Z,10.51
2023-03-17T06:50:23.044Z,10.64
2023-03-17T06:52:51.935Z,10.75
2023-03-17T06:55:22.249Z,10.83
2023-03-17T06:57:51.446Z,10.97
2023-03-17T07:00:21.039Z,11.04
2023-03-17T07:02:49.599Z,11.06
2023-03-17T07:05:18.621Z,11.20
2023-03-17T07:07:46.993Z,11.26
2023-03-17T07:10:15.968Z,11.38
2023-03-17T07:12:45.834Z,11.70
2023-03-17T07:15:13.917Z,11.92
2023-03-17T07:17:42.060Z,12.00
2023-03-17T07:20:11.927Z,12.17
2023-03-17T07:22:39.877Z,12.12
2023-03-17T07:25:09.676Z,12.38
2023-03-17T07:27:37.977Z,12.64
2023-03-17T07:30:08.889Z,12.69
2023-03-17T07:32:37.645Z,12.57
2023-03-17T07:35:07.356Z,12.85
2023-03-17T07:37:35.370Z,12.94
2023-03-17T07:40:03.645Z,13.02
2023-03-17T07:42:31.531Z,13.15
2023-03-17T07:44:59.651Z,13.31
2023-03-17T07:47:29.312Z,13.52
2023-03-17T07:49:58.240Z,13.51
2023-03-17T07:52:26.708Z,13.71
2023-03-17T07:54:55.981Z,13.86
2023-03-17T07:57:24.135Z,14.04
2023-03-17T07:59:52.301Z,13.96
2023-03-17T08:02:21.192Z,14.09
2023-03-17T08:04:51.032Z,14.24
2023-03-17T08:07:19.462Z,14.15
2023-03-17T08:09:47.856Z,14.45
2023-03-17T08:12:16.524Z,14.68
2023-03-17T08:14:44.602Z,14.72
2023-03-17T08:17:13.594Z,14.50
2023-03-17T08:19:42.417Z,15.00
2023-03-17T08:22:12.378Z,15.33
2023-03-17T08:24:42.974Z,15.23
2023-03-17T08:27:11.560Z,15.61
2023-03-17T08:29:39.659Z,15.63
2023-03-17T08:32:08.132Z,15.95
2023-03-17T08:34:36.536Z,15.89
2023-03-17T08:37:04.957Z,15.96
2023-03-17T08:39:35.005Z,15.76
2023-03-17T08:42:04.700Z,15.77
2023-03-17T08:44:33.270Z,15.57
2023-03-17T08:47:01.235Z,15.89
2023-03-17T08:49:29.534Z,16.08
2023-03-17T08:51:57.521Z,16.18
2023-03-17T08:54:25.506Z,16.54
2023-03-17T08:56:55.157Z,16.52
2023-03-17T08:59:23.131Z,16.62
2023-03-17T09:01:51.133Z,16.87
2023-03-17T09:04:19.776Z,16.84
2023-03-17T09:07:02.332Z,16.99
2023-03-17T09:09:32.108Z,16.97
2023-03-17T09:12:03.015Z,17.13
2023-03-17T09:14:40.086Z,17.31
2023-03-17T09:17:11.216Z,17.38
2023-03-17T09:19:40.488Z,17.53
2023-03-17T09:22:08.716Z,17.65
2023-03-17T09:24:36.876Z,17.81
2023-03-17T09:27:07.010Z,18.04
2023-03-17T09:29:35.663Z,18.07
2023-03-17T09:32:03.641Z,18.29
2023-03-17T09:34:31.929Z,18.50
2023-03-17T09:37:00.711Z,18.55
2023-03-17T09:39:28.833Z,18.74
2023-03-17T09:42:09.388Z,18.65
2023-03-17T09:45:13.390Z,18.39
2023-03-17T09:48:02.961Z,18.91
2023-03-17T09:50:39.062Z,19.03
2023-03-17T09:53:18.360Z,19.32
2023-03-17T09:55:49.085Z,19.46
2023-03-17T09:58:22.291Z,19.57
2023-03-17T10:00:50.291Z,19.51
2023-03-17T10:03:18.762Z,19.76
2023-03-17T10:05:46.921Z,19.97
2023-03-17T10:08:30.780Z,20.01
2023-03-17T10:11:06.253Z,20.31
2023-03-17T10:13:48.394Z,20.29
2023-03-17T10:16:20.733Z,20.48
2023-03-17T10:18:56.506Z,20.82
2023-03-17T10:21:30.243Z,20.99
2023-03-17T10:23:59.351Z,21.33
2023-03-17T10:26:32.250Z,21.56
2023-03-17T10:29:04.212Z,21.61
2023-03-17T10:31:35.438Z,21.74
2023-03-17T10:34:14.381Z,21.67
2023-03-17T10:36:45.015Z,21.37
2023-03-17T10:39:15.460Z,21.31
2023-03-17T10:41:53.044Z,21.23
2023-03-17T10:44:36.791Z,20.96
2023-03-17T10:47:05.159Z,20.75
2023-03-17T10:49:37.759Z,20.98
2023-03-17T10:52:08.877Z,20.74
2023-03-17T10:54:37.465Z,20.89
2023-03-17T10:57:10.580Z,20.92
2023-03-17T10:59:44.908Z,21.24
2023-03-17T11:02:24.991Z,21.46
2023-03-17T11:04:55.970Z,21.75
2023-03-17T11:07:31.218Z,22.00
2023-03-17T11:10:02.496Z,21.94
2023-03-17T11:12:36.967Z,22.19
2023-03-17T11:15:11.356Z,22.07
2023-03-17T11:17:45.343Z,22.19
2023-03-17T11:20:33.275Z,22.23
2023-03-17T11:23:07.708Z,22.22
2023-03-17T11:25:40.387Z,22.46
2023-03-17T11:28:19.840Z,22.60
2023-03-17T11:30:59.273Z,22.53
2023-03-17T11:33:35.403Z,22.63
2023-03-17T11:36:15.730Z,22.73
2023-03-17T11:38:56.067Z,22.78
2023-03-17T11:41:37.002Z,22.85
2023-03-17T11:44:53.748Z,22.84
2023-03-17T11:47:38.919Z,23.02
2023-03-17T11:50:20.784Z,23.01
2023-03-17T11:53:00.664Z,23.13
2023-03-17T11:55:35.295Z,23.41
2023-03-17T11:58:10.474Z,23.56
2023-03-17T12:00:43.978Z,23.42
2023-03-17T12:03:23.566Z,23.52
2023-03-17T12:05:56.387Z,23.65
2023-03-17T12:08:31.040Z,23.63
2023-03-17T12:11:01.950Z,23.68
2023-03-17T12:13:39.816Z,23.74
2023-03-17T12:16:11.390Z,23.58
2023-03-17T12:18:46.251Z,23.85
2023-03-17T12:21:22.545Z,23.82
2023-03-17T12:23:54.321Z,23.71
2023-03-17T12:26:30.224Z,23.54
2023-03-17T12:29:03.798Z,23.38
2023-03-17T12:31:35.288Z,23.46
2023-03-17T12:34:15.526Z,23.50
2023-03-17T12:36:44.641Z,23.35
2023-03-17T12:39:16.299Z,23.45
2023-03-17T12:41:59.656Z,23.49
2023-03-17T12:44:42.786Z,23.56
2023-03-17T12:47:31.407Z,23.71
2023-03-17T12:50:21.392Z,23.65
2023-03-17T12:53:14.235Z,23.95
2023-03-17T12:55:47.149Z,23.60
2023-03-17T12:58:33.388Z,23.69
2023-03-17T13:01:08.912Z,23.56
2023-03-17T13:03:46.709Z,23.31
2023-03-17T13:06:22.474Z,23.20
2023-03-17T13:08:52.089Z,23.21
2023-03-17T13:11:27.653Z,23.16
2023-03-17T13:14:15.455Z,23.18
2023-03-17T13:16:47.366Z,23.05
2023-03-17T13:19:22.665Z,22.99
2023-03-17T13:22:25.491Z,22.98
2023-03-17T13:24:55.592Z,22.67
2023-03-17T13:27:46.041Z,22.99
2023-03-17T13:30:43.821Z,23.03
2023-03-17T13:33:23.737Z,23.11
2023-03-17T13:36:09.561Z,23.17
2023-03-17T13:39:18.392Z,23.09
2023-03-17T13:42:01.090Z,23.31
2023-03-17T13:44:47.808Z,23.30
2023-03-17T13:47:27.197Z,23.32
2023-03-17T13:50:02.160Z,23.34
2023-03-17T13:52:33.948Z,23.18
2023-03-17T13:55:26.111Z,23.34
2023-03-17T13:57:57.704Z,23.30
2023-03-17T14:00:29.292Z,23.36
2023-03-17T14:03:03.457Z,23.42
2023-03-17T14:05:34.944Z,23.38
2023-03-17T14:08:05.532Z,23.41
2023-03-17T14:10:35.761Z,23.29
2023-03-17T14:13:14.258Z,23.28
2023-03-17T14:15:49.488Z,23.16
2023-03-17T14:18:20.652Z,23.01
2023-03-17T14:21:09.439Z,23.22
2023-03-17T14:23:39.598Z,23.07
2023-03-17T14:26:12.234Z,23.09
2023-03-17T14:28:40.627Z,23.00
2023-03-17T14:31:19.823Z,23.05
2023-03-17T14:33:48.042Z,23.00
2023-03-17T14:36:16.012Z,23.06
2023-03-17T14:38:49.084Z,23.14
2023-03-17T14:41:21.397Z,23.17
2023-03-17T14:43:51.237Z,23.23
2023-03-17T14:46:24.612Z,23.33
2023-03-17T14:48:58.682Z,23.37
2023-03-17T14:51:30.529Z,23.44
2023-03-17T14:54:01.323Z,23.56
2023-03-17T14:56:35.940Z,23.66
2023-03-17T14:59:07.465Z,23.77
2023-03-17T15:01:39.615Z,23.84
2023-03-17T15:04:12.829Z,23.87
2023-03-17T15:06:50.649Z,23.87
2023-03-17T15:09:21.246Z,23.78
2023-03-17T15:11:50.909Z,23.68
2023-03-17T15:14:24.015Z,23.56
2023-03-17T15:16:55.877Z,23.47
2023-03-17T15:19:28.689Z,23.36
2023-03-17T15:22:00.290Z,23.28
2023-03-17T15:24:40.850Z,23.21
2023-03-17T15:27:17.399Z,23.08
2023-03-17T15:29:45.587Z,23.00
2023-03-17T15:32:16.532Z,22.92
2023-03-17T15:34:44.425Z,22.88
2023-03-17T15:37:17.006Z,22.81
2023-03-17T15:39:45.654Z,22.80
2023-03-17T15:42:22.223Z,22.73
2023-03-17T15:44:50.894Z,22.66
2023-03-17T15:47:21.511Z,22.58
2023-03-17T15:49:51.359Z,22.52
2023-03-17T15:52:24.871Z,22.42
2023-03-17T15:54:54.523Z,22.35
2023-03-17T15:57:25.001Z,22.26
2023-03-17T15:59:53.138Z,22.17
2023-03-17T16:02:27.437Z,22.06
2023-03-17T16:04:56.539Z,21.94
2023-03-17T16:07:25.369Z,21.84
2023-03-17T16:09:53.660Z,21.76
2023-03-17T16:12:21.817Z,21.66
2023-03-17T16:14:51.538Z,21.58
2023-03-17T16:17:26.726Z,21.48
2023-03-17T16:19:56.348Z,21.41
2023-03-17T16:22:38.188Z,21.31
2023-03-17T16:25:19.069Z,21.18
2023-03-17T16:27:47.864Z,21.02
2023-03-17T16:30:19.943Z,20.91
2023-03-17T16:32:48.138Z,20.74
2023-03-17T16:35:18.185Z,20.60
2023-03-17T16:37:48.028Z,20.49
2023-03-17T16:40:22.018Z,20.37
2023-03-17T16:42:51.904Z,20.25
2023-03-17T16:45:29.077Z,20.18
2023-03-17T16:47:58.029Z,20.06
2023-03-17T16:50:28.195Z,20.02
2023-03-17T16:52:56.742Z,19.96
2023-03-17T16:55:27.101Z,19.85
2023-03-17T16:58:00.728Z,19.74
2023-03-17T17:00:32.201Z,19.63
2023-03-17T17:03:00.699Z,19.53
2023-03-17T17:05:31.205Z,19.48
2023-03-17T17:07:59.730Z,19.42
2023-03-17T17:10:30.573Z,19.35
2023-03-17T17:12:59.034Z,19.28
2023-03-17T17:15:27.547Z,19.20
2023-03-17T17:17:59.294Z,19.04
2023-03-17T17:20:30.865Z,18.86
2023-03-17T17:22:59.661Z,18.73
2023-03-17T17:25:28.591Z,18.67
2023-03-17T17:27:58.092Z,18.58
2023-03-17T17:30:28.349Z,18.52
2023-03-17T17:32:59.685Z,18.45
2023-03-17T17:35:32.344Z,18.35
2023-03-17T17:38:01.925Z,18.32
2023-03-17T17:40:31.007Z,18.25
2023-03-17T17:42:59.423Z,18.19
2023-03-17T17:45:27.814Z,18.09
2023-03-17T17:47:55.850Z,18.03
2023-03-17T17:50:28.506Z,17.98
2023-03-17T17:53:02.733Z,17.88
2023-03-17T17:55:30.959Z,17.86
2023-03-17T17:57:59.237Z,17.83
2023-03-17T18:00:28.321Z,17.80
2023-03-17T18:02:56.842Z,17.76
2023-03-17T18:05:26.317Z,17.75
2023-03-17T18:07:54.844Z,17.68
2023-03-17T18:10:25.869Z,17.64
2023-03-17T18:12:55.728Z,17.62
2023-03-17T18:15:25.346Z,17.66
2023-03-17T18:17:53.636Z,17.67
2023-03-17T18:20:23.146Z,17.67
2023-03-17T18:22:54.097Z,17.69
2023-03-17T18:25:22.604Z,17.69
2023-03-17T18:27:51.909Z,17.76
2023-03-17T18:30:23.355Z,17.76
2023-03-17T18:32:55.916Z,17.83
2023-03-17T18:35:27.062Z,17.79
2023-03-17T18:37:57.246Z,17.90
2023-03-17T18:40:26.041Z,17.87
2023-03-17T18:42:54.980Z,18.00
2023-03-17T18:45:23.776Z,17.93
2023-03-17T18:47:52.001Z,17.92
2023-03-17T18:50:22.022Z,18.03
2023-03-17T18:52:50.565Z,18.04
2023-03-17T18:55:21.620Z,18.04
2023-03-17T18:57:49.529Z,17.97
2023-03-17T19:00:19.004Z,17.98
2023-03-17T19:02:48.082Z,17.97
2023-03-17T19:05:16.727Z,17.92
2023-03-17T19:07:45.281Z,17.86
2023-03-17T19:10:15.103Z,17.84
2023-03-17T19:12:47.222Z,17.84
2023-03-17T19:15:18.346Z,17.77
2023-03-17T19:17:46.949Z,17.78
2023-03-17T19:20:15.958Z,17.72
2023-03-17T19:22:43.940Z,17.64
2023-03-17T19:25:12.667Z,17.64
2023-03-17T19:27:41.236Z,17.62
2023-03-17T19:30:12.959Z,17.56
2023-03-17T19:32:41.436Z,17.47
2023-03-17T19:35:10.798Z,17.39
2023-03-17T19:37:39.308Z,17.35
2023-03-17T19:40:10.593Z,17.36
2023-03-17T19:42:39.045Z,17.32
2023-03-17T19:45:09.173Z,17.19
2023-03-17T19:47:38.486Z,17.23
2023-03-17T19:50:07.593Z,17.20
2023-03-17T19:52:36.278Z,17.20
2023-03-17T19:55:08.086Z,17.14
2023-03-17T19:57:36.503Z,17.16
2023-03-17T20:00:09.242Z,17.10
2023-03-17T20:02:39.095Z,17.06
2023-03-17T20:05:08.931Z,17.07
2023-03-17T20:07:37.199Z,17.06
2023-03-17T20:10:07.742Z,17.11
2023-03-17T20:12:38.106Z,17.06
2023-03-17T20:15:08.086Z,17.00
2023-03-17T20:17:37.396Z,16.92
2023-03-17T20:20:09.238Z,16.97
2023-03-17T20:22:38.618Z,16.85
2023-03-17T20:25:08.840Z,17.01
2023-03-17T20:27:36.838Z,16.97
2023-03-17T20:30:05.604Z,16.99
2023-03-17T20:32:34.460Z,16.98
2023-03-17T20:35:02.915Z,16.98
2023-03-17T20:37:32.518Z,16.98
2023-03-17T20:40:02.812Z,16.97
2023-03-17T20:42:31.388Z,16.94
2023-03-17T20:44:59.981Z,16.93
2023-03-17T20:47:28.242Z,16.79
2023-03-17T20:49:58.737Z,16.90
2023-03-17T20:52:28.877Z,16.93
2023-03-17T20:55:00.128Z,16.89
2023-03-17T20:57:28.812Z,16.86
2023-03-17T20:59:58.103Z,16.84
2023-03-17T21:02:26.536Z,16.82
2023-03-17T21:04:54.729Z,16.82
2023-03-17T21:07:24.208Z,16.85
2023-03-17T21:09:56.429Z,16.63
2023-03-17T21:12:26.218Z,16.74
2023-03-17T21:14:54.136Z,16.50
2023-03-17T21:17:22.831Z,16.53
2023-03-17T21:19:51.037Z,16.50
2023-03-17T21:22:18.986Z,16.49
2023-03-17T21:24:47.056Z,16.61
2023-03-17T21:27:15.797Z,16.56
2023-03-17T21:29:45.411Z,16.59
2023-03-17T21:32:13.498Z,16.48
2023-03-17T21:34:41.683Z,16.49
2023-03-17T21:37:12.939Z,16.49
2023-03-17T21:39:41.129Z,16.47
2023-03-17T21:42:10.535Z,16.47
2023-03-17T21:44:38.701Z,16.48
2023-03-17T21:47:08.229Z,16.41
2023-03-17T21:49:36.201Z,16.45
2023-03-17T21:52:04.618Z,16.41
2023-03-17T21:54:32.773Z,16.41
2023-03-17T21:57:00.801Z,16.38
2023-03-17T21:59:30.831Z,16.36
2023-03-17T22:01:59.619Z,16.26
2023-03-17T22:04:29.965Z,16.30
2023-03-17T22:07:01.061Z,16.30
2023-03-17T22:09:31.884Z,16.32
2023-03-17T22:12:01.184Z,16.32
2023-03-17T22:14:30.869Z,16.29
2023-03-17T22:17:02.867Z,16.26
2023-03-17T22:19:44.112Z,16.21
2023-03-17T22:22:12.897Z,16.16
2023-03-17T22:24:41.849Z,16.24
2023-03-17T22:27:11.777Z,16.23
2023-03-17T22:29:40.627Z,16.23
2023-03-17T22:32:12.856Z,16.39
2023-03-17T22:34:43.069Z,16.38
2023-03-17T22:37:14.702Z,16.41
2023-03-17T22:39:43.670Z,16.41
2023-03-17T22:42:12.858Z,16.32
2023-03-17T22:44:41.741Z,16.33
2023-03-17T22:47:17.034Z,16.26
2023-03-17T22:49:47.241Z,16.27
2023-03-17T22:52:18.542Z,16.24
2023-03-17T22:54:47.555Z,16.25
2023-03-17T22:57:16.403Z,16.24
2023-03-17T22:59:45.265Z,16.23
2023-03-17T23:02:16.255Z,16.19
2023-03-17T23:04:54.805Z,16.16
2023-03-17T23:07:31.747Z,16.13
2023-03-17T23:10:00.491Z,16.10
2023-03-17T23:12:30.103Z,16.05
2023-03-17T23:14:58.648Z,15.99
2023-03-17T23:17:28.635Z,16.06
2023-03-17T23:19:59.449Z,16.01
2023-03-17T23:22:27.788Z,15.95
2023-03-17T23:24:55.927Z,15.77
2023-03-17T23:27:24.135Z,15.86
2023-03-17T23:29:53.138Z,15.90
2023-03-17T23:32:21.117Z,15.86
2023-03-17T23:34:49.422Z,15.76
2023-03-17T23:37:18.860Z,15.69
2023-03-17T23:39:46.930Z,15.67
2023-03-17T23:42:16.993Z,15.64
2023-03-17T23:44:45.169Z,15.64
2023-03-17T23:47:14.623Z,15.59
2023-03-17T23:49:43.045Z,15.57
2023-03-17T23:52:11.332Z,15.53
2023-03-17T23:54:40.749Z,15.53
2023-03-17T23:57:09.253Z,15.51
2023-03-17T23:59:37.195Z,15.54
